Time;durP1;ratioP1;P1;durP2;ratioP2;P2;SDS_P1;SDS_P2;PMS_P1;PMS_P2;Temp;Humidity;BMP_temperature;BMP_pressure;BME280_temperature;BME280_humidity;BME280_pressure;Samples;Min_cycle;Max_cycle;Signal;HPM_P1;HPM_P2
2021/01/06 00:01:02;;;;;;;76.57;16.85;;;2.30;28.00;;;;;;5071519;28;20256;-68
2021/01/06 00:03:29;;;;;;;78.28;17.10;;;2.30;28.00;;;;;;5071592;28;20235;-66
2021/01/06 00:05:58;;;;;;;76.38;17.23;;;2.30;27.90;;;;;;5071645;28;20644;-67
2021/01/06 00:08:25;;;;;;;72.68;16.80;;;2.30;28.40;;;;;;5071768;28;20236;-67
2021/01/06 00:10:55;;;;;;;73.70;14.93;;;2.30;28.60;;;;;;5071731;28;20629;-68
2021/01/06 00:13:24;;;;;;;76.95;18.05;;;2.30;28.20;;;;;;5071445;28;20725;-66
2021/01/06 00:15:50;;;;;;;78.55;17.48;;;2.30;28.50;;;;;;5071147;28;20208;-66
2021/01/06 00:18:17;;;;;;;76.57;15.68;;;2.30;28.10;;;;;;5071664;28;20266;-67
2021/01/06 00:20:44;;;;;;;74.60;15.93;;;2.30;27.90;;;;;;5071543;28;20599;-66
2021/01/06 00:23:12;;;;;;;75.90;16.08;;;2.30;28.30;;;;;;5071563;28;20326;-65
2021/01/06 00:25:41;;;;;;;73.55;15.38;;;2.30;28.30;;;;;;5071282;28;20236;-66
2021/01/06 00:28:09;;;;;;;76.93;15.88;;;2.30;28.00;;;;;;5071381;28;20212;-66
2021/01/06 00:30:37;;;;;;;85.97;16.98;;;2.30;28.00;;;;;;5071194;28;20209;-66
2021/01/06 00:33:07;;;;;;;73.63;14.93;;;2.30;27.90;;;;;;5071707;28;20719;-66
2021/01/06 00:35:34;;;;;;;74.80;16.02;;;2.30;27.80;;;;;;5071409;28;20208;-66
2021/01/06 00:38:00;;;;;;;74.82;15.65;;;2.30;27.70;;;;;;5071524;28;20205;-65
2021/01/06 00:40:30;;;;;;;76.25;16.35;;;2.20;27.30;;;;;;5071222;28;20201;-65
2021/01/06 00:42:57;;;;;;;76.20;16.40;;;2.20;27.70;;;;;;5071208;28;20208;-66
2021/01/06 00:45:24;;;;;;;77.03;16.50;;;2.20;27.70;;;;;;5071104;28;20204;-66
2021/01/06 00:47:51;;;;;;;75.80;16.38;;;2.20;27.00;;;;;;5071268;28;20201;-66
2021/01/06 00:50:20;;;;;;;75.43;16.50;;;2.20;27.10;;;;;;5071048;28;20209;-66
2021/01/06 00:52:46;;;;;;;76.82;16.83;;;2.20;26.90;;;;;;5070979;28;20704;-66
2021/01/06 00:55:12;;;;;;;77.53;15.25;;;2.20;26.50;;;;;;5070821;28;20201;-66
2021/01/06 00:57:40;;;;;;;74.40;16.73;;;2.20;26.40;;;;;;5071131;28;20213;-67
2021/01/06 01:00:09;;;;;;;76.32;15.93;;;2.20;26.70;;;;;;5071335;28;20208;-66
2021/01/06 01:02:35;;;;;;;73.75;15.05;;;2.20;26.00;;;;;;5072328;28;20221;-66
2021/01/06 01:05:02;;;;;;;73.72;14.65;;;2.10;24.60;;;;;;5075096;28;20204;-66
2021/01/06 01:07:29;;;;;;;78.63;16.27;;;2.10;24.80;;;;;;5075060;28;20214;-66
2021/01/06 01:09:55;;;;;;;76.28;15.50;;;2.10;24.80;;;;;;5074731;28;20212;-67
2021/01/06 01:12:22;;;;;;;75.28;16.50;;;2.10;24.20;;;;;;5074926;28;20240;-66
2021/01/06 01:14:50;;;;;;;75.88;16.70;;;2.10;24.70;;;;;;5074624;28;20212;-66
2021/01/06 01:17:16;;;;;;;74.32;16.15;;;2.00;24.50;;;;;;5074715;28;20201;-68
2021/01/06 01:19:43;;;;;;;73.22;16.08;;;2.00;25.20;;;;;;5074517;28;20578;-66
2021/01/06 01:22:09;;;;;;;73.47;15.65;;;2.00;25.70;;;;;;5074470;28;20264;-66
2021/01/06 01:24:35;;;;;;;75.50;15.70;;;2.00;25.90;;;;;;5075673;28;20374;-66
2021/01/06 01:27:02;;;;;;;74.38;16.45;;;2.00;26.40;;;;;;5076435;28;20213;-66
2021/01/06 01:29:28;;;;;;;75.80;15.55;;;2.00;27.40;;;;;;5074847;28;20200;-66
2021/01/06 01:31:56;;;;;;;74.22;16.83;;;2.00;27.40;;;;;;5074357;28;20237;-67
2021/01/06 01:34:22;;;;;;;72.70;14.65;;;2.00;27.10;;;;;;5074412;28;20212;-66
2021/01/06 01:36:49;;;;;;;74.25;14.18;;;2.00;27.10;;;;;;5073958;28;20676;-66
2021/01/06 01:39:17;;;;;;;78.90;16.50;;;2.00;27.40;;;;;;5073954;28;20215;-66
2021/01/06 01:41:44;;;;;;;74.35;15.55;;;2.00;27.90;;;;;;5074331;28;20231;-66
2021/01/06 01:44:11;;;;;;;72.68;14.55;;;2.00;28.20;;;;;;5074175;28;20211;-66
2021/01/06 01:46:49;;;;;;;70.10;14.02;;;2.00;27.10;;;;;;5074028;28;20213;-66
2021/01/06 01:49:24;;;;;;;76.28;15.23;;;2.00;27.60;;;;;;5074178;28;20208;-66
2021/01/06 01:52:00;;;;;;;73.88;14.77;;;2.00;27.80;;;;;;5073830;28;20264;-66
2021/01/06 01:54:28;;;;;;;80.03;14.45;;;2.00;27.90;;;;;;5074123;28;20205;-66
2021/01/06 01:56:59;;;;;;;71.93;14.40;;;2.00;28.10;;;;;;5073844;28;20212;-66
2021/01/06 01:59:30;;;;;;;74.82;15.32;;;2.00;28.30;;;;;;5074019;28;20205;-66
2021/01/06 02:02:02;;;;;;;73.80;15.10;;;2.00;29.30;;;;;;5073644;28;20228;-66
2021/01/06 02:04:35;;;;;;;71.68;13.70;;;2.10;29.30;;;;;;5074225;28;20209;-66
2021/01/06 02:07:09;;;;;;;70.55;13.80;;;2.10;29.30;;;;;;5073469;28;20299;-67
2021/01/06 02:09:46;;;;;;;73.10;15.60;;;2.10;29.00;;;;;;5073553;28;20668;-66
2021/01/06 02:12:15;;;;;;;74.63;14.48;;;2.10;29.20;;;;;;5073405;28;20311;-66
2021/01/06 02:14:53;;;;;;;73.45;14.52;;;2.10;28.80;;;;;;5072168;28;20285;-66
2021/01/06 02:17:19;;;;;;;74.03;15.48;;;2.00;28.10;;;;;;5072719;28;20295;-66
2021/01/06 02:19:47;;;;;;;68.70;12.93;;;2.00;27.70;;;;;;5072885;28;20428;-66
2021/01/06 02:22:17;;;;;;;73.82;14.65;;;2.00;27.60;;;;;;5072975;28;20233;-66
2021/01/06 02:24:44;;;;;;;72.00;12.57;;;2.00;27.20;;;;;;5073328;28;20274;-66
2021/01/06 02:27:11;;;;;;;74.25;14.02;;;1.90;27.10;;;;;;5072856;28;20242;-66
2021/01/06 02:29:38;;;;;;;72.63;14.20;;;1.90;26.10;;;;;;5072967;28;20205;-66
2021/01/06 02:32:07;;;;;;;74.05;14.60;;;1.90;25.80;;;;;;5073046;28;20627;-66
2021/01/06 02:34:35;;;;;;;75.55;15.48;;;1.80;24.80;;;;;;5072927;28;20336;-65
2021/01/06 02:37:02;;;;;;;72.55;14.82;;;1.80;24.90;;;;;;5053827;28;20212;-66
2021/01/06 02:39:29;;;;;;;75.40;15.30;;;1.80;24.50;;;;;;5052546;28;20676;-66
2021/01/06 02:41:55;;;;;;;71.90;14.02;;;1.70;24.60;;;;;;5053242;28;20261;-66
2021/01/06 02:44:22;;;;;;;75.25;15.20;;;1.70;25.20;;;;;;5053249;28;20197;-66
2021/01/06 02:46:49;;;;;;;73.57;14.30;;;1.70;25.30;;;;;;5053013;28;20201;-66
2021/01/06 02:49:16;;;;;;;79.38;16.88;;;1.70;26.00;;;;;;5052974;28;20206;-66
2021/01/06 02:51:47;;;;;;;74.70;14.95;;;1.70;26.00;;;;;;5052867;28;20291;-66
2021/01/06 02:54:19;;;;;;;74.65;15.73;;;1.70;26.10;;;;;;5052678;28;20675;-66
2021/01/06 02:56:49;;;;;;;73.90;14.93;;;1.70;26.90;;;;;;5052545;28;20206;-66
2021/01/06 02:59:16;;;;;;;73.50;14.05;;;1.70;27.30;;;;;;5052956;28;20248;-67
2021/01/06 03:01:45;;;;;;;72.32;13.50;;;1.60;26.30;;;;;;5052760;28;20229;-66
2021/01/06 03:04:18;;;;;;;73.70;13.95;;;1.60;26.40;;;;;;5052686;28;20205;-66
2021/01/06 03:06:51;;;;;;;70.68;12.88;;;1.60;26.60;;;;;;5052318;28;20220;-66
2021/01/06 03:09:26;;;;;;;72.97;14.50;;;1.60;27.50;;;;;;5052775;28;20557;-65
2021/01/06 03:11:54;;;;;;;72.40;14.20;;;1.60;27.30;;;;;;5052582;28;20317;-66
2021/01/06 03:14:21;;;;;;;74.70;15.43;;;1.60;27.20;;;;;;5052344;28;20708;-66
2021/01/06 03:16:48;;;;;;;73.40;16.20;;;1.60;27.20;;;;;;5052112;28;20204;-66
2021/01/06 03:19:15;;;;;;;73.22;16.00;;;1.60;27.90;;;;;;5052198;28;20210;-66
2021/01/06 03:21:45;;;;;;;73.90;14.43;;;1.50;28.10;;;;;;5052259;28;20236;-66
2021/01/06 03:24:12;;;;;;;71.30;14.23;;;1.60;28.80;;;;;;5054929;28;20213;-66
2021/01/06 03:26:41;;;;;;;71.18;14.07;;;1.60;29.60;;;;;;5052605;28;20269;-66
2021/01/06 03:29:08;;;;;;;72.28;15.45;;;1.60;29.80;;;;;;5052306;28;20214;-66
2021/01/06 03:31:39;;;;;;;73.70;15.48;;;1.60;29.80;;;;;;5052313;28;20234;-67
2021/01/06 03:34:12;;;;;;;71.30;14.43;;;1.50;30.00;;;;;;5075125;22;20249;-68
2021/01/06 03:36:43;;;;;;;73.80;14.30;;;1.50;29.90;;;;;;5051742;28;20249;-68
2021/01/06 03:39:17;;;;;;;73.05;14.40;;;1.50;30.00;;;;;;5052326;28;20209;-68
2021/01/06 03:41:44;;;;;;;71.15;13.82;;;1.50;30.20;;;;;;5051946;28;20216;-68
2021/01/06 03:44:13;;;;;;;75.70;14.85;;;1.50;30.40;;;;;;5051588;28;20225;-68
2021/01/06 03:46:45;;;;;;;74.90;14.55;;;1.50;30.70;;;;;;5051848;28;20240;-69
2021/01/06 03:49:21;;;;;;;72.82;14.80;;;1.50;30.90;;;;;;5051901;28;20201;-69
2021/01/06 03:51:56;;;;;;;70.80;14.35;;;1.50;31.20;;;;;;5052075;28;20672;-70
2021/01/06 03:54:30;;;;;;;69.78;14.25;;;1.50;30.70;;;;;;5051435;28;20617;-69
2021/01/06 03:56:58;;;;;;;71.90;15.40;;;1.50;30.70;;;;;;5051412;28;20692;-69
2021/01/06 03:59:29;;;;;;;71.22;14.02;;;1.50;30.70;;;;;;5051775;28;20205;-69
2021/01/06 04:02:02;;;;;;;72.47;13.63;;;1.50;31.60;;;;;;5051565;28;20669;-69
2021/01/06 04:04:32;;;;;;;70.78;13.77;;;1.50;32.10;;;;;;5051644;28;20226;-69
2021/01/06 04:07:00;;;;;;;71.50;13.50;;;1.50;31.60;;;;;;5051074;28;20683;-69
2021/01/06 04:09:33;;;;;;;70.45;13.25;;;1.50;32.20;;;;;;5051632;28;20550;-69
2021/01/06 04:12:07;;;;;;;71.93;13.63;;;1.50;32.00;;;;;;5051753;28;20209;-69
2021/01/06 04:14:35;;;;;;;69.35;13.85;;;1.50;32.50;;;;;;5051450;28;20267;-69
2021/01/06 04:17:17;;;;;;;69.18;12.48;;;1.50;33.60;;;;;;5051110;28;20275;-69
2021/01/06 04:19:47;;;;;;;68.60;12.20;;;1.50;34.40;;;;;;5051184;28;20703;-69
2021/01/06 04:22:14;;;;;;;71.10;14.90;;;1.50;34.90;;;;;;5051493;28;20213;-69
2021/01/06 04:24:41;;;;;;;70.80;12.85;;;1.50;34.60;;;;;;5051251;28;20253;-69
2021/01/06 04:27:08;;;;;;;71.47;14.48;;;1.50;35.10;;;;;;5051143;28;20216;-69
2021/01/06 04:29:35;;;;;;;71.90;13.77;;;1.50;35.70;;;;;;5051190;28;20216;-69
2021/01/06 04:32:01;;;;;;;70.68;13.40;;;1.50;36.30;;;;;;5051068;28;20209;-69
2021/01/06 04:34:27;;;;;;;73.75;14.57;;;1.60;36.60;;;;;;5051004;28;20256;-69
2021/01/06 04:36:54;;;;;;;67.78;12.77;;;1.60;37.00;;;;;;5051024;28;20650;-69
2021/01/06 04:39:20;;;;;;;69.45;12.77;;;1.60;36.50;;;;;;5055138;28;20212;-69
2021/01/06 04:41:54;;;;;;;71.57;13.45;;;1.60;37.00;;;;;;5055350;28;20216;-68
2021/01/06 04:44:44;;;;;;;68.18;12.30;;;1.60;37.00;;;;;;5055194;28;20256;-68
2021/01/06 04:47:37;;;;;;;74.68;15.23;;;1.60;36.90;;;;;;5055115;28;20205;-68
2021/01/06 04:50:44;;;;;;;72.35;15.15;;;1.60;37.40;;;;;;5055152;28;20213;-68
2021/01/06 04:53:19;;;;;;;73.22;13.95;;;1.60;37.00;;;;;;5052374;28;20229;-68
2021/01/06 04:55:56;;;;;;;75.55;14.02;;;1.60;37.00;;;;;;5054908;28;20205;-68
2021/01/06 04:58:31;;;;;;;72.80;14.50;;;1.60;36.80;;;;;;5055093;28;20205;-69
2021/01/06 05:01:28;;;;;;;70.28;13.63;;;1.60;35.70;;;;;;5054947;28;20601;-68
2021/01/06 05:04:05;;;;;;;75.97;14.15;;;1.60;35.70;;;;;;5052263;28;20229;-69
2021/01/06 05:06:56;;;;;;;72.45;13.45;;;1.60;36.20;;;;;;5054721;28;20209;-69
2021/01/06 05:09:26;;;;;;;70.93;14.00;;;1.60;36.50;;;;;;5051431;28;20209;-69
2021/01/06 05:11:58;;;;;;;70.00;12.10;;;1.60;36.10;;;;;;5054770;28;20205;-69
2021/01/06 05:14:31;;;;;;;71.43;14.05;;;1.60;36.20;;;;;;5054828;28;20225;-69
2021/01/06 05:16:59;;;;;;;71.35;13.35;;;1.60;37.00;;;;;;5054575;28;20547;-69
2021/01/06 05:19:29;;;;;;;70.22;12.48;;;1.60;36.60;;;;;;5054333;28;20206;-69
2021/01/06 05:21:55;;;;;;;68.88;13.43;;;1.60;35.60;;;;;;5054466;28;20212;-69
2021/01/06 05:24:27;;;;;;;74.40;14.50;;;1.60;35.80;;;;;;5054663;28;20638;-69
2021/01/06 05:27:02;;;;;;;68.00;12.70;;;1.60;35.40;;;;;;5054550;28;20508;-69
2021/01/06 05:29:29;;;;;;;72.30;14.77;;;1.60;34.90;;;;;;5054435;28;20213;-69
2021/01/06 05:31:56;;;;;;;69.18;12.35;;;1.60;35.70;;;;;;5054354;28;20213;-69
2021/01/06 05:34:26;;;;;;;70.93;14.10;;;1.60;35.20;;;;;;5053889;28;20245;-69
2021/01/06 05:36:52;;;;;;;75.03;14.43;;;1.60;34.10;;;;;;5054110;28;20700;-69
2021/01/06 05:39:24;;;;;;;69.13;12.68;;;1.60;34.00;;;;;;5054171;28;20213;-69
2021/01/06 05:41:54;;;;;;;73.38;13.55;;;1.60;33.60;;;;;;5054231;28;20209;-69
2021/01/06 05:44:21;;;;;;;74.10;14.55;;;1.60;32.40;;;;;;5054195;28;20315;-69
2021/01/06 05:46:48;;;;;;;68.65;12.77;;;1.60;32.00;;;;;;5053837;28;20205;-69
2021/01/06 05:49:21;;;;;;;68.90;11.98;;;1.60;31.10;;;;;;5052588;28;20217;-69
2021/01/06 05:51:54;;;;;;;71.82;12.55;;;1.60;31.10;;;;;;5054015;28;20248;-69
2021/01/06 05:54:27;;;;;;;66.00;12.25;;;1.60;30.50;;;;;;5053897;28;20312;-69
2021/01/06 05:57:07;;;;;;;71.93;12.65;;;1.60;30.10;;;;;;5054165;28;20202;-69
2021/01/06 05:59:54;;;;;;;70.55;13.23;;;1.60;30.00;;;;;;5053709;28;20201;-69
2021/01/06 06:02:25;;;;;;;67.75;11.85;;;1.50;29.80;;;;;;5053941;28;20620;-69
2021/01/06 06:05:13;;;;;;;66.28;11.40;;;1.50;30.00;;;;;;5053646;28;20233;-69
2021/01/06 06:07:55;;;;;;;69.60;12.27;;;1.50;30.10;;;;;;5053741;28;20210;-69
2021/01/06 06:10:37;;;;;;;71.00;12.73;;;1.60;30.30;;;;;;5054052;28;20210;-69
2021/01/06 06:13:17;;;;;;;67.13;11.60;;;1.60;30.70;;;;;;5053573;28;20804;-69
2021/01/06 06:16:18;;;;;;;67.60;11.85;;;1.50;30.10;;;;;;5053340;28;20294;-69
2021/01/06 06:19:10;;;;;;;68.35;12.05;;;1.50;29.20;;;;;;5053574;28;20201;-69
2021/01/06 06:21:43;;;;;;;69.55;13.18;;;1.50;29.60;;;;;;5053784;28;20210;-69
2021/01/06 06:24:23;;;;;;;66.40;11.52;;;1.50;29.50;;;;;;5053179;28;20229;-69
2021/01/06 06:27:00;;;;;;;66.28;11.20;;;1.50;29.60;;;;;;5053112;28;20221;-69
2021/01/06 06:29:33;;;;;;;66.65;11.73;;;1.50;29.50;;;;;;5053389;28;20559;-69
2021/01/06 06:32:01;;;;;;;65.55;10.48;;;1.50;29.40;;;;;;5053494;28;20590;-69
2021/01/06 06:34:31;;;;;;;65.88;10.98;;;1.50;29.60;;;;;;5052902;28;20233;-69
2021/01/06 06:37:21;;;;;;;69.82;11.98;;;1.50;29.50;;;;;;5052798;28;20669;-69
2021/01/06 06:40:06;;;;;;;66.75;12.00;;;1.50;29.20;;;;;;5049162;28;20233;-69
2021/01/06 06:42:35;;;;;;;66.50;11.90;;;1.50;29.00;;;;;;5053256;28;20205;-69
2021/01/06 06:45:20;;;;;;;67.10;12.35;;;1.50;29.00;;;;;;5052941;28;20579;-69
2021/01/06 06:48:05;;;;;;;67.82;11.38;;;1.50;29.00;;;;;;5053221;28;20212;-69
2021/01/06 06:50:51;;;;;;;66.25;11.15;;;1.50;27.80;;;;;;5052799;28;20230;-69
2021/01/06 06:53:27;;;;;;;63.72;10.18;;;1.50;28.20;;;;;;5053023;28;20238;-69
2021/01/06 06:56:07;;;;;;;65.68;11.15;;;1.50;28.70;;;;;;5052322;28;20267;-69
2021/01/06 06:58:44;;;;;;;66.15;11.48;;;1.50;28.30;;;;;;5052919;28;20206;-69
2021/01/06 07:01:14;;;;;;;65.72;10.48;;;1.50;28.70;;;;;;5052508;28;20584;-69
2021/01/06 07:03:49;;;;;;;67.70;11.93;;;1.50;29.40;;;;;;5052849;28;20221;-68
2021/01/06 07:06:16;;;;;;;66.00;10.85;;;1.50;28.40;;;;;;5052161;28;20209;-68
2021/01/06 07:08:46;;;;;;;72.50;12.02;;;1.50;27.70;;;;;;5052900;28;20673;-69
2021/01/06 07:11:37;;;;;;;65.38;10.63;;;1.50;27.70;;;;;;5052472;28;20244;-69
2021/01/06 07:14:15;;;;;;;66.57;11.60;;;1.50;28.20;;;;;;5052425;28;20233;-69
2021/01/06 07:16:57;;;;;;;68.60;10.73;;;1.50;27.50;;;;;;5052004;28;20209;-69
2021/01/06 07:19:27;;;;;;;66.35;9.77;;;1.50;27.30;;;;;;5052452;28;20237;-69
2021/01/06 07:22:01;;;;;;;67.88;11.70;;;1.50;27.40;;;;;;5052614;28;20208;-69
2021/01/06 07:24:28;;;;;;;65.85;11.50;;;1.50;27.40;;;;;;5052026;28;20233;-69
2021/01/06 07:26:59;;;;;;;66.70;11.43;;;1.50;27.30;;;;;;5051762;28;20211;-68
2021/01/06 07:29:31;;;;;;;67.80;11.45;;;1.50;27.00;;;;;;5052337;28;20214;-69
2021/01/06 07:32:02;;;;;;;68.00;12.18;;;1.50;27.30;;;;;;5052303;28;20576;-69
2021/01/06 07:34:41;;;;;;;67.72;11.75;;;1.50;26.80;;;;;;5051684;28;20237;-69
2021/01/06 07:37:23;;;;;;;65.50;10.30;;;1.50;26.70;;;;;;5051746;28;20680;-69
2021/01/06 07:39:58;;;;;;;64.82;10.50;;;1.50;26.10;;;;;;5051965;28;20206;-69
2021/01/06 07:42:37;;;;;;;65.85;11.45;;;1.50;25.80;;;;;;5051849;28;20204;-69
2021/01/06 07:45:33;;;;;;;64.82;10.55;;;1.50;25.80;;;;;;5051663;28;20278;-69
2021/01/06 07:48:27;;;;;;;65.85;10.27;;;1.50;26.40;;;;;;5050223;28;20736;-69
2021/01/06 07:51:03;;;;;;;66.80;11.70;;;1.50;26.90;;;;;;5051526;28;20209;-69
2021/01/06 07:53:39;;;;;;;65.78;11.65;;;1.50;26.80;;;;;;5051512;28;20237;-69
2021/01/06 07:56:13;;;;;;;64.03;10.52;;;1.50;26.90;;;;;;5051261;28;20248;-69
2021/01/06 07:58:43;;;;;;;65.63;10.18;;;1.50;26.80;;;;;;5051854;28;20209;-69
2021/01/06 08:01:31;;;;;;;64.43;10.48;;;1.50;26.30;;;;;;5051451;28;20216;-68
2021/01/06 08:04:03;;;;;;;64.35;9.50;;;1.50;26.60;;;;;;5050839;28;20312;-69
2021/01/06 08:06:40;;;;;;;65.50;11.07;;;1.60;33.30;;;;;;5050326;28;20221;-68
2021/01/06 08:09:07;;;;;;;64.80;10.43;;;2.10;53.80;;;;;;5051637;28;20208;-68
2021/01/06 08:11:45;;;;;;;68.32;11.35;;;2.20;59.10;;;;;;5051130;28;20213;-68
2021/01/06 08:14:22;;;;;;;64.25;9.98;;;2.20;59.70;;;;;;5051303;28;20285;-68
2021/01/06 08:16:52;;;;;;;63.85;10.18;;;2.10;57.20;;;;;;5051152;28;20555;-68
2021/01/06 08:19:23;;;;;;;65.15;11.18;;;1.90;54.70;;;;;;5051249;28;20296;-68
2021/01/06 08:21:55;;;;;;;66.40;10.32;;;1.80;51.20;;;;;;5051490;28;20658;-68
2021/01/06 08:24:36;;;;;;;65.75;11.10;;;1.80;49.10;;;;;;5051408;28;20267;-68
2021/01/06 08:27:04;;;;;;;63.55;9.50;;;1.70;46.80;;;;;;5051166;28;20258;-68
2021/01/06 08:29:33;;;;;;;66.50;10.15;;;1.70;44.70;;;;;;5051049;28;20242;-68
2021/01/06 08:32:04;;;;;;;65.22;10.27;;;1.60;42.40;;;;;;5051403;28;20236;-69
2021/01/06 08:34:33;;;;;;;65.60;10.25;;;1.60;41.30;;;;;;5050874;28;20234;-69
2021/01/06 08:37:03;;;;;;;66.70;11.43;;;1.60;40.30;;;;;;5050962;28;20209;-69
2021/01/06 08:39:32;;;;;;;65.63;11.27;;;1.60;38.10;;;;;;5051091;28;20213;-69
2021/01/06 08:42:08;;;;;;;65.25;9.68;;;1.50;37.50;;;;;;5051031;28;20279;-69
2021/01/06 08:44:40;;;;;;;67.47;11.20;;;1.50;36.70;;;;;;5051178;28;20703;-69
2021/01/06 08:47:09;;;;;;;64.93;10.10;;;1.50;36.10;;;;;;5051024;28;20289;-69
2021/01/06 08:49:37;;;;;;;63.95;9.27;;;1.50;35.40;;;;;;5050970;28;20665;-68
2021/01/06 08:52:22;;;;;;;66.32;10.77;;;1.50;34.80;;;;;;5051201;28;20205;-69
2021/01/06 08:55:00;;;;;;;66.47;9.52;;;1.60;35.00;;;;;;5050976;28;20652;-69
2021/01/06 08:57:30;;;;;;;67.97;11.90;;;1.60;34.90;;;;;;5051039;28;20279;-69
2021/01/06 09:00:11;;;;;;;65.10;10.50;;;1.60;33.90;;;;;;5050856;28;20208;-69
2021/01/06 09:02:46;;;;;;;67.68;10.60;;;1.60;32.50;;;;;;5051453;28;20572;-69
2021/01/06 09:05:49;;;;;;;67.88;12.05;;;1.60;32.00;;;;;;5050865;28;20221;-69
2021/01/06 09:08:17;;;;;;;67.57;11.45;;;1.70;31.50;;;;;;5050933;28;20201;-69
2021/01/06 09:10:56;;;;;;;65.40;10.65;;;1.70;30.00;;;;;;5050852;28;20553;-69
2021/01/06 09:13:29;;;;;;;64.28;11.02;;;1.70;30.00;;;;;;5050612;28;20699;-69
2021/01/06 09:16:02;;;;;;;66.85;10.48;;;1.70;29.60;;;;;;5050701;28;20216;-69
2021/01/06 09:18:34;;;;;;;68.45;12.23;;;1.70;28.60;;;;;;5051344;28;20255;-68
2021/01/06 09:21:16;;;;;;;66.20;11.40;;;1.80;29.50;;;;;;5050864;28;20202;-69
2021/01/06 09:23:46;;;;;;;67.18;12.00;;;1.80;28.80;;;;;;5051821;28;20712;-69
2021/01/06 09:26:16;;;;;;;71.20;11.50;;;1.80;26.10;;;;;;5054153;28;20206;-69
2021/01/06 09:28:47;;;;;;;65.57;10.27;;;1.80;24.60;;;;;;5054473;28;20558;-69
2021/01/06 09:31:16;;;;;;;69.20;12.43;;;1.80;24.10;;;;;;5054442;28;20275;-68
2021/01/06 09:33:45;;;;;;;66.90;11.65;;;1.80;24.10;;;;;;5054093;28;20240;-69
2021/01/06 09:36:13;;;;;;;69.78;12.20;;;1.80;23.00;;;;;;5082807;22;20229;-67
2021/01/06 09:38:44;;;;;;;65.68;11.00;;;1.80;21.90;;;;;;5094256;28;20208;-67
2021/01/06 09:41:14;;;;;;;64.63;10.88;;;1.80;21.50;;;;;;5094432;28;20671;-67
2021/01/06 09:43:47;;;;;;;64.90;10.52;;;1.80;20.40;;;;;;5094417;28;20208;-67
2021/01/06 09:46:17;;;;;;;62.90;10.00;;;1.70;19.40;;;;;;5094162;28;20220;-67
2021/01/06 09:48:51;;;;;;;66.93;11.15;;;1.70;19.60;;;;;;5094184;28;20239;-66
2021/01/06 09:51:20;;;;;;;66.07;10.63;;;1.60;20.00;;;;;;5094317;28;20204;-66
2021/01/06 09:53:51;;;;;;;64.68;10.15;;;1.60;20.70;;;;;;5094218;28;20255;-66
2021/01/06 09:56:34;;;;;;;66.15;10.05;;;1.60;20.80;;;;;;5094371;28;20224;-66
2021/01/06 09:59:02;;;;;;;65.82;11.02;;;1.60;21.00;;;;;;5093959;28;20211;-66
2021/01/06 10:01:35;;;;;;;64.07;10.63;;;1.60;21.20;;;;;;5094319;28;20208;-66
2021/01/06 10:04:10;;;;;;;64.90;11.18;;;1.60;21.30;;;;;;5094310;28;20200;-66
2021/01/06 10:06:42;;;;;;;67.28;12.13;;;1.60;21.80;;;;;;5093869;28;20304;-66
2021/01/06 10:09:21;;;;;;;65.20;10.57;;;1.60;22.20;;;;;;5093890;28;20214;-66
2021/01/06 10:11:59;;;;;;;67.63;11.80;;;1.60;23.10;;;;;;5093821;28;20192;-66
2021/01/06 10:14:40;;;;;;;65.63;11.20;;;1.70;24.50;;;;;;5093902;28;20273;-66
2021/01/06 10:17:14;;;;;;;70.13;12.88;;;1.80;24.90;;;;;;5093610;28;20552;-67
2021/01/06 10:19:47;;;;;;;67.47;11.95;;;1.80;25.40;;;;;;5093628;28;20208;-66
2021/01/06 10:22:31;;;;;;;67.78;12.57;;;1.90;24.30;;;;;;5093623;28;20588;-67
2021/01/06 10:25:19;;;;;;;66.50;11.73;;;2.00;24.40;;;;;;5093896;28;20279;-67
2021/01/06 10:27:58;;;;;;;68.43;11.68;;;2.00;24.40;;;;;;5093728;28;20226;-67
2021/01/06 10:30:27;;;;;;;68.20;12.07;;;2.00;24.20;;;;;;5093299;28;20204;-67
2021/01/06 10:33:15;;;;;;;67.18;12.88;;;2.10;23.90;;;;;;5093315;28;20212;-67
2021/01/06 10:36:03;;;;;;;73.38;11.73;;;2.10;23.20;;;;;;5093075;28;20211;-67
2021/01/06 10:38:32;;;;;;;68.32;11.40;;;2.10;22.70;;;;;;5093485;28;20211;-67
2021/01/06 10:41:20;;;;;;;67.63;12.43;;;2.20;22.50;;;;;;5093513;28;20212;-67
2021/01/06 10:43:47;;;;;;;70.05;13.05;;;2.20;21.70;;;;;;5093377;28;20675;-67
2021/01/06 10:46:41;;;;;;;66.82;12.02;;;2.20;19.70;;;;;;5093076;28;20204;-67
2021/01/06 10:49:13;;;;;;;65.90;11.73;;;2.20;18.10;;;;;;5092822;28;20671;-67
2021/01/06 10:52:16;;;;;;;68.28;12.05;;;2.10;15.80;;;;;;5095484;28;20208;-67
2021/01/06 10:54:52;;;;;;;65.80;10.77;;;2.10;15.30;;;;;;5025709;28;20270;-67
2021/01/06 10:57:25;;;;;;;67.57;11.35;;;2.10;15.60;;;;;;5092647;28;20227;-67
2021/01/06 11:00:17;;;;;;;66.45;10.02;;;2.10;15.60;;;;;;5093125;28;20670;-67
2021/01/06 11:02:57;;;;;;;65.18;10.25;;;2.10;15.60;;;;;;5092803;28;20247;-67
2021/01/06 11:05:28;;;;;;;67.68;11.20;;;2.10;16.10;;;;;;5092814;28;20208;-67
2021/01/06 11:08:15;;;;;;;68.90;11.18;;;2.10;16.50;;;;;;5092779;28;20224;-66
2021/01/06 11:11:06;;;;;;;66.03;11.23;;;2.10;15.30;;;;;;5092744;28;20211;-67
2021/01/06 11:13:52;;;;;;;69.28;12.15;;;2.00;14.80;;;;;;5092742;28;20252;-66
2021/01/06 11:16:23;;;;;;;64.30;9.52;;;2.00;15.10;;;;;;5092127;28;20264;-66
2021/01/06 11:18:50;;;;;;;67.35;10.73;;;1.90;15.80;;;;;;5092546;28;20732;-67
2021/01/06 11:21:22;;;;;;;65.70;11.02;;;1.90;15.60;;;;;;5092550;28;20208;-66
2021/01/06 11:23:56;;;;;;;68.70;12.38;;;1.90;15.70;;;;;;5092534;28;20214;-66
2021/01/06 11:26:52;;;;;;;69.10;14.20;;;1.90;15.90;;;;;;5092055;28;20227;-66
2021/01/06 11:29:48;;;;;;;71.88;13.30;;;1.80;16.40;;;;;;5092764;28;20234;-66
2021/01/06 11:32:40;;;;;;;68.40;12.70;;;1.80;16.70;;;;;;5083974;28;20296;-66
2021/01/06 11:35:30;;;;;;;67.07;11.70;;;1.80;18.40;;;;;;5092159;28;20224;-66
2021/01/06 11:37:59;;;;;;;65.95;10.85;;;1.90;19.10;;;;;;5091870;28;20232;-66
2021/01/06 11:40:49;;;;;;;65.10;11.52;;;1.90;19.50;;;;;;5092104;28;20211;-66
2021/01/06 11:43:38;;;;;;;66.43;11.38;;;1.90;19.50;;;;;;5091912;28;20625;-66
2021/01/06 11:46:33;;;;;;;68.47;12.10;;;1.90;19.70;;;;;;5091877;28;20200;-66
2021/01/06 11:49:22;;;;;;;66.88;11.20;;;1.90;19.60;;;;;;5091724;28;20674;-66
2021/01/06 11:52:28;;;;;;;67.75;11.75;;;1.90;20.30;;;;;;5091828;28;20216;-66
2021/01/06 11:54:59;;;;;;;67.63;13.15;;;1.90;21.30;;;;;;5009650;28;20230;-66
2021/01/06 11:57:45;;;;;;;66.30;12.18;;;1.90;21.40;;;;;;5009330;28;20285;-66
2021/01/06 12:00:53;;;;;;;66.00;11.70;;;1.90;21.20;;;;;;5063215;28;20251;-66
2021/01/06 12:03:24;;;;;;;68.00;12.32;;;1.90;21.40;;;;;;5091853;28;20675;-66
2021/01/06 12:06:06;;;;;;;67.75;12.55;;;2.00;22.10;;;;;;5091697;28;20232;-66
2021/01/06 12:08:51;;;;;;;67.25;12.20;;;2.00;22.30;;;;;;5091754;28;20302;-66
2021/01/06 12:11:26;;;;;;;70.65;12.88;;;2.00;22.10;;;;;;5091625;28;20674;-66
2021/01/06 12:14:05;;;;;;;66.10;12.02;;;2.00;22.10;;;;;;5091451;28;20702;-66
2021/01/06 12:16:41;;;;;;;67.22;11.23;;;2.10;22.10;;;;;;5091261;28;20232;-66
2021/01/06 12:19:28;;;;;;;70.20;12.50;;;2.10;22.60;;;;;;5091674;28;20651;-66
2021/01/06 12:22:09;;;;;;;69.05;12.88;;;2.10;22.00;;;;;;5091704;28;20203;-67
2021/01/06 12:24:51;;;;;;;72.63;13.80;;;2.10;21.90;;;;;;5091584;28;20246;-67
2021/01/06 12:27:56;;;;;;;71.18;12.80;;;2.20;21.90;;;;;;5091537;28;20694;-66
2021/01/06 12:30:48;;;;;;;67.10;12.30;;;2.10;21.00;;;;;;5070938;28;20204;-67
2021/01/06 12:33:32;;;;;;;72.30;15.32;;;2.10;21.00;;;;;;5072176;28;20209;-66
2021/01/06 12:36:25;;;;;;;72.60;14.57;;;2.10;20.60;;;;;;5090882;28;20208;-66
2021/01/06 12:38:54;;;;;;;69.97;13.65;;;2.10;20.60;;;;;;5091565;28;20587;-66
2021/01/06 12:41:23;;;;;;;72.18;14.00;;;2.10;20.90;;;;;;5091220;28;20303;-66
2021/01/06 12:44:08;;;;;;;66.88;12.35;;;2.00;21.50;;;;;;5091241;28;20206;-67
2021/01/06 12:46:40;;;;;;;68.15;13.00;;;2.00;21.50;;;;;;5091178;28;20224;-66
2021/01/06 12:49:42;;;;;;;67.43;12.55;;;2.10;22.40;;;;;;5091433;28;20210;-66
2021/01/06 12:52:20;;;;;;;68.65;11.75;;;2.00;21.70;;;;;;5091585;28;20214;-66
2021/01/06 12:54:54;;;;;;;66.70;11.68;;;2.00;22.00;;;;;;5091938;28;20723;-66
2021/01/06 12:57:25;;;;;;;66.05;11.80;;;2.00;21.80;;;;;;5091197;28;20234;-66
2021/01/06 12:59:56;;;;;;;69.25;12.52;;;2.00;21.80;;;;;;5094663;28;20621;-66
2021/01/06 13:02:30;;;;;;;65.13;9.90;;;2.00;22.10;;;;;;5095114;28;20233;-66
2021/01/06 13:05:09;;;;;;;64.85;12.30;;;2.00;23.40;;;;;;5095382;28;20232;-66
2021/01/06 13:07:38;;;;;;;69.38;11.82;;;2.00;23.80;;;;;;5094903;28;20223;-66
2021/01/06 13:10:23;;;;;;;67.63;12.07;;;2.00;24.40;;;;;;5095356;28;20218;-66
2021/01/06 13:12:54;;;;;;;68.03;12.30;;;2.00;24.40;;;;;;5094860;28;20200;-66
2021/01/06 13:15:26;;;;;;;67.72;12.65;;;2.00;25.50;;;;;;5095028;28;20277;-66